Redwood City, CA (94061)

3:45 PM PDT on May 25, 2015 (GMT -0700)
Jasper Ridge Biological Preserve | | Change Station
CLOSE
Current Station
Personal Weather Station
Location: Woodside, CA
Elevation: 420 ft
Nearby Weather Stations

Elev 420 ft 37.41 °N, 122.24 °W | Updated 8 minutes ago

Clear
Clear
66.9 °F
Feels Like 66.9 °F
N
6.0
Wind Variable Wind from North
Gusts 16.0 mph

Today
High -- | Low -- °F
--% Chance of Precip.
Yesterday
High -- | Low -- °F
Precip. -- in
5:53 AM 8:19 PM
First Quarter, 52% visible
Pressure 29.98 in
Visibility 10.0 miles
Clouds Few 1200 ft
Few 2500 ft
Dew Point 55 °F
Humidity 65%
Rainfall 0.00 in
Snow Depth Not available.
UV 9 out of 12
Pollen 6.20 out of 12
Air Quality Not available.
Flu Activity Sporadic
METAR KSQL 252147Z 25015G20KT 10SM FEW012 FEW025 18/09 A2998

More Conditions Fewer Conditions

Pressure 29.98 in
Visibility 10.0 miles
Clouds Few 1200 ft
Few 2500 ft
Dew Point 55 °F
Humidity 65%
Rainfall 0.00 in
Snow Depth Not available.
UV 9 out of 12
Pollen 6.20 out of 12
Air Quality Not available.
Flu Activity Sporadic
METAR KSQL 252147Z 25015G20KT 10SM FEW012 FEW025 18/09 A2998

More Conditions Fewer Conditions

10-Day Weather Forecast

Almanac

Astronomy

May. 25, 2015 Rise Set
Actual Time
Civil Twilight
Nautical Twilight
Astronomical Twilight
Moon
Length of Visible Light
Length of Day
Tomorrow will be .
, % of the Moon is Illuminated

Today's Extremes

State Highs State Lows

Community

WunderPhotos

Upload Photos

1,824,153 photos uploaded!

WunderBlogs® & News

Nearby

Air Quality

  Air Quality AQ Index Pollutant
Not available.

Snow Depth

Station Depth Elevation

Earthquake Activity

City Distance Mag. Time & Date
Minimum magnitude displayed is 2.5.

Coastal Water Temperatures

Place Temperature

Stations

Nearby Weather Stations

Station Location Temp. Windchill Dew Point Humidity Wind Precip. Elev Updated Type